createdAt,value
2022-10-01T00:00:09.073Z,8.80
2022-10-01T00:05:32.442Z,8.77
2022-10-01T00:10:38.519Z,8.80
2022-10-01T00:15:42.852Z,8.72
2022-10-01T00:20:46.251Z,8.63
2022-10-01T00:25:52.789Z,8.54
2022-10-01T00:30:56.238Z,8.59
2022-10-01T00:35:59.784Z,8.65
2022-10-01T00:41:05.247Z,8.69
2022-10-01T00:46:20.357Z,8.66
2022-10-01T00:51:30.658Z,8.74
2022-10-01T00:56:34.537Z,8.78
2022-10-01T01:01:39.586Z,8.74
2022-10-01T01:06:54.062Z,8.68
2022-10-01T01:12:48.680Z,8.58
2022-10-01T01:18:09.603Z,8.60
2022-10-01T01:23:16.386Z,8.68
2022-10-01T01:28:37.738Z,8.77
2022-10-01T01:33:46.199Z,8.82
2022-10-01T01:38:59.093Z,8.76
2022-10-01T01:44:08.957Z,8.74
2022-10-01T01:49:18.007Z,8.74
2022-10-01T01:54:21.733Z,8.70
2022-10-01T01:59:27.422Z,8.64
2022-10-01T02:04:40.231Z,8.56
2022-10-01T02:09:55.109Z,8.49
2022-10-01T02:15:22.702Z,8.43
2022-10-01T02:20:46.116Z,8.39
2022-10-01T02:25:58.765Z,8.41
2022-10-01T02:31:03.936Z,8.40
2022-10-01T02:36:11.652Z,8.34
2022-10-01T02:41:25.326Z,8.21
2022-10-01T02:46:55.067Z,8.01
2022-10-01T02:52:17.184Z,7.84
2022-10-01T02:57:24.296Z,7.69
2022-10-01T03:02:31.826Z,7.59
2022-10-01T03:07:35.944Z,7.62
2022-10-01T03:12:45.001Z,7.65
2022-10-01T03:17:53.863Z,7.61
2022-10-01T03:22:57.253Z,7.46
2022-10-01T03:28:01.190Z,7.35
2022-10-01T03:33:05.005Z,7.33
2022-10-01T03:38:08.626Z,7.23
2022-10-01T03:43:12.549Z,7.15
2022-10-01T03:48:16.166Z,7.09
2022-10-01T03:53:19.577Z,7.09
2022-10-01T03:58:23.710Z,7.15
2022-10-01T04:03:26.988Z,7.23
2022-10-01T04:08:30.337Z,7.18
2022-10-01T04:13:35.163Z,7.03
2022-10-01T04:18:39.002Z,6.90
2022-10-01T04:23:42.724Z,6.85
2022-10-01T04:28:47.126Z,6.90
2022-10-01T04:33:51.317Z,6.94
2022-10-01T04:39:01.841Z,6.95
2022-10-01T04:44:06.742Z,6.90
2022-10-01T04:49:10.443Z,6.87
2022-10-01T04:54:13.858Z,6.83
2022-10-01T04:59:18.710Z,6.78
2022-10-01T05:04:22.122Z,6.74
2022-10-01T05:09:25.636Z,6.71
2022-10-01T05:14:32.342Z,6.74
2022-10-01T05:19:36.218Z,6.79
2022-10-01T05:24:40.350Z,6.91
2022-10-01T05:29:44.416Z,6.97
2022-10-01T05:34:51.265Z,6.97
2022-10-01T05:39:57.075Z,7.01
2022-10-01T05:45:00.387Z,7.06
2022-10-01T05:50:05.372Z,7.16
2022-10-01T05:55:09.680Z,7.30
2022-10-01T06:00:14.109Z,7.39
2022-10-01T06:05:17.864Z,7.51
2022-10-01T06:10:22.529Z,7.72
2022-10-01T06:15:26.199Z,7.98
2022-10-01T06:20:30.014Z,8.30
2022-10-01T06:25:35.268Z,8.61
2022-10-01T06:30:40.465Z,8.84
2022-10-01T06:35:49.970Z,8.99
2022-10-01T06:41:00.000Z,9.08
2022-10-01T06:46:06.088Z,9.21
2022-10-01T06:51:09.500Z,9.41
2022-10-01T06:56:13.573Z,9.66
2022-10-01T07:01:21.199Z,9.93
2022-10-01T07:06:25.009Z,10.18
2022-10-01T07:11:28.424Z,10.39
2022-10-01T07:16:32.104Z,10.54
2022-10-01T07:21:35.763Z,10.64
2022-10-01T07:26:39.519Z,10.76
2022-10-01T07:31:44.632Z,10.91
2022-10-01T07:36:49.602Z,11.11
2022-10-01T07:41:53.310Z,11.33
2022-10-01T07:46:57.557Z,11.52
2022-10-01T07:52:01.947Z,11.62
2022-10-01T07:57:05.292Z,11.80
2022-10-01T08:02:17.991Z,12.02
2022-10-01T08:07:21.538Z,12.14
2022-10-01T08:12:26.364Z,12.21
2022-10-01T08:17:30.408Z,12.37
2022-10-01T08:22:36.540Z,12.56
2022-10-01T08:27:42.054Z,12.68
2022-10-01T08:32:45.370Z,12.80
2022-10-01T08:37:48.985Z,13.03
2022-10-01T08:42:55.070Z,13.13
2022-10-01T08:48:26.134Z,13.21
2022-10-01T08:53:57.907Z,13.42
2022-10-01T08:59:31.422Z,13.66
2022-10-01T09:04:34.765Z,13.85
2022-10-01T09:09:41.014Z,13.90
2022-10-01T09:14:54.262Z,14.05
2022-10-01T09:20:11.694Z,14.10
2022-10-01T09:25:26.482Z,14.07
2022-10-01T09:30:33.067Z,14.26
2022-10-01T09:35:44.530Z,14.33
2022-10-01T09:40:56.904Z,14.46
2022-10-01T09:46:02.686Z,14.50
2022-10-01T09:51:39.407Z,14.57
2022-10-01T09:56:53.533Z,14.72
2022-10-01T10:02:01.468Z,14.79
2022-10-01T10:07:06.404Z,14.96
2022-10-01T10:12:30.190Z,15.14
2022-10-01T10:17:38.107Z,15.18
2022-10-01T10:22:41.521Z,15.32
2022-10-01T10:27:55.750Z,15.40
2022-10-01T10:33:06.320Z,15.51
2022-10-01T10:38:19.109Z,15.47
2022-10-01T10:43:30.670Z,15.49
2022-10-01T10:48:45.090Z,15.50
2022-10-01T10:53:49.804Z,15.55
2022-10-01T10:58:54.342Z,15.66
2022-10-01T11:04:01.507Z,15.77
2022-10-01T11:09:11.325Z,15.85
2022-10-01T11:14:45.124Z,15.94
2022-10-01T11:20:34.245Z,16.03
2022-10-01T11:25:52.096Z,16.10
2022-10-01T11:31:47.834Z,15.92
2022-10-01T11:37:16.029Z,15.90
2022-10-01T11:42:35.200Z,15.94
2022-10-01T11:47:50.402Z,15.93
2022-10-01T11:53:32.729Z,16.04
2022-10-01T11:58:51.094Z,16.20
2022-10-01T12:03:54.715Z,16.19
2022-10-01T12:09:20.757Z,16.13
2022-10-01T12:14:37.718Z,16.14
2022-10-01T12:19:47.191Z,16.16
2022-10-01T12:24:51.435Z,16.18
2022-10-01T12:30:19.262Z,16.20
2022-10-01T12:35:37.734Z,16.25
2022-10-01T12:40:54.045Z,16.29
2022-10-01T12:46:29.450Z,16.29
2022-10-01T12:51:45.008Z,16.20
2022-10-01T12:57:17.915Z,16.15
2022-10-01T13:02:27.436Z,16.13
2022-10-01T13:07:47.049Z,16.09
2022-10-01T13:13:17.275Z,16.03
2022-10-01T13:18:51.746Z,16.04
2022-10-01T13:24:00.795Z,16.08
2022-10-01T13:29:31.241Z,16.08
2022-10-01T13:34:46.547Z,16.15
2022-10-01T13:39:50.772Z,16.14
2022-10-01T13:44:57.977Z,16.08
2022-10-01T13:50:06.809Z,16.11
2022-10-01T13:55:32.111Z,16.23
2022-10-01T14:00:35.655Z,16.26
2022-10-01T14:05:43.224Z,16.18
2022-10-01T14:11:17.095Z,16.01
2022-10-01T14:16:20.706Z,15.83
2022-10-01T14:21:39.382Z,15.65
2022-10-01T14:27:17.309Z,15.47
2022-10-01T14:33:08.848Z,15.29
2022-10-01T14:38:21.546Z,15.11
2022-10-01T14:43:28.788Z,14.98
2022-10-01T14:48:36.847Z,14.87
2022-10-01T14:53:43.910Z,14.78
2022-10-01T14:58:56.947Z,14.68
2022-10-01T15:04:00.405Z,14.56
2022-10-01T15:09:19.201Z,14.46
2022-10-01T15:14:26.011Z,14.36
2022-10-01T15:19:30.238Z,14.27
2022-10-01T15:24:47.350Z,14.21
2022-10-01T15:29:56.446Z,14.10
2022-10-01T15:35:02.551Z,14.00
2022-10-01T15:40:21.091Z,13.92
2022-10-01T15:45:26.255Z,13.84
2022-10-01T15:50:37.027Z,13.80
2022-10-01T15:55:47.984Z,13.74
2022-10-01T16:01:27.151Z,13.68
2022-10-01T16:06:48.205Z,13.59
2022-10-01T16:12:21.344Z,13.48
2022-10-01T16:17:58.977Z,13.38
2022-10-01T16:23:48.043Z,13.32
2022-10-01T16:29:00.024Z,13.30
2022-10-01T16:34:08.771Z,13.28
2022-10-01T16:39:15.864Z,13.25
2022-10-01T16:44:20.096Z,13.20
2022-10-01T16:49:25.254Z,13.17
2022-10-01T16:54:30.268Z,13.12
2022-10-01T16:59:34.230Z,13.08
2022-10-01T17:04:37.619Z,13.10
2022-10-01T17:09:41.370Z,13.10
2022-10-01T17:14:44.819Z,13.05
2022-10-01T17:19:48.192Z,13.00
2022-10-01T17:24:51.779Z,13.00
2022-10-01T17:29:57.482Z,13.03
2022-10-01T17:35:01.406Z,13.05
2022-10-01T17:40:07.536Z,13.02
2022-10-01T17:45:14.012Z,12.98
2022-10-01T17:50:18.951Z,12.98
2022-10-01T17:55:23.979Z,12.98
2022-10-01T18:00:27.487Z,12.95
2022-10-01T18:05:31.312Z,12.90
2022-10-01T18:10:34.733Z,12.91
2022-10-01T18:15:38.135Z,12.89
2022-10-01T18:20:41.960Z,12.85
2022-10-01T18:25:45.375Z,12.84
2022-10-01T18:30:54.931Z,12.82
2022-10-01T18:35:58.438Z,12.77
2022-10-01T18:41:12.610Z,12.73
2022-10-01T18:46:58.114Z,12.74
2022-10-01T18:52:20.759Z,12.77
2022-10-01T18:58:08.643Z,12.74
2022-10-01T19:03:33.664Z,12.70
2022-10-01T19:09:09.023Z,12.71
2022-10-01T19:14:45.710Z,12.70
2022-10-01T19:20:45.914Z,12.63
2022-10-01T19:26:22.142Z,12.56
2022-10-01T19:31:54.161Z,12.55
2022-10-01T19:37:10.132Z,12.59
2022-10-01T19:42:27.984Z,12.61
2022-10-01T19:47:51.063Z,12.58
2022-10-01T19:52:59.254Z,12.52
2022-10-01T19:58:19.631Z,12.48
2022-10-01T20:03:42.259Z,12.49
2022-10-01T20:09:08.644Z,12.51
2022-10-01T20:15:20.241Z,12.51
2022-10-01T20:20:38.690Z,12.52
2022-10-01T20:26:18.236Z,12.46
2022-10-01T20:31:41.796Z,12.39
2022-10-01T20:36:57.135Z,12.39
2022-10-01T20:42:01.575Z,12.39
2022-10-01T20:47:42.475Z,12.38
2022-10-01T20:53:16.186Z,12.33
2022-10-01T20:58:29.205Z,12.27
2022-10-01T21:03:43.134Z,12.21
2022-10-01T21:08:56.944Z,12.13
2022-10-01T21:14:15.437Z,12.10
2022-10-01T21:19:30.607Z,12.14
2022-10-01T21:24:39.441Z,12.20
2022-10-01T21:29:57.089Z,12.30
2022-10-01T21:35:21.698Z,12.31
2022-10-01T21:40:55.219Z,12.14
2022-10-01T21:46:32.921Z,11.96
2022-10-01T21:52:04.411Z,11.84
2022-10-01T21:57:25.558Z,11.84
2022-10-01T22:02:49.133Z,11.84
2022-10-01T22:07:59.710Z,11.85
2022-10-01T22:13:14.383Z,11.80
2022-10-01T22:18:53.790Z,11.73
2022-10-01T22:24:08.932Z,11.65
2022-10-01T22:29:22.687Z,11.57
2022-10-01T22:34:38.082Z,11.55
2022-10-01T22:39:55.957Z,11.53
2022-10-01T22:45:13.630Z,11.56
2022-10-01T22:50:28.773Z,11.57
2022-10-01T22:55:54.577Z,11.59
2022-10-01T23:01:22.989Z,11.60
2022-10-01T23:07:10.355Z,11.57
2022-10-01T23:12:19.400Z,11.53
2022-10-01T23:17:45.751Z,11.48
2022-10-01T23:23:25.521Z,11.50
2022-10-01T23:28:37.129Z,11.54
2022-10-01T23:34:27.746Z,11.60
2022-10-01T23:39:54.985Z,11.60
2022-10-01T23:45:24.182Z,11.67
2022-10-01T23:50:40.375Z,11.70
2022-10-01T23:56:20.217Z,11.64
